sensor_id;sensor_type;location;lat;lon;timestamp;temperature;humidity
11497;DHT22;5805;51.542;7.230;2022-11-18T00:01:42;11.80;99.90
11497;DHT22;5805;51.542;7.230;2022-11-18T00:04:07;12.50;99.90
11497;DHT22;5805;51.542;7.230;2022-11-18T00:06:33;12.50;99.90
11497;DHT22;5805;51.542;7.230;2022-11-18T00:08:59;11.90;99.90
11497;DHT22;5805;51.542;7.230;2022-11-18T00:11:25;11.90;99.90
11497;DHT22;5805;51.542;7.230;2022-11-18T00:13:51;11.90;99.90
11497;DHT22;5805;51.542;7.230;2022-11-18T00:16:18;11.90;99.90
11497;DHT22;5805;51.542;7.230;2022-11-18T00:18:44;11.90;99.90
11497;DHT22;5805;51.542;7.230;2022-11-18T00:21:11;11.90;99.90
11497;DHT22;5805;51.542;7.230;2022-11-18T00:23:37;11.90;99.90
11497;DHT22;5805;51.542;7.230;2022-11-18T00:26:03;11.90;99.90
11497;DHT22;5805;51.542;7.230;2022-11-18T00:28:29;12.00;99.90
11497;DHT22;5805;51.542;7.230;2022-11-18T00:31:00;12.00;99.90
11497;DHT22;5805;51.542;7.230;2022-11-18T00:33:27;12.00;99.90
11497;DHT22;5805;51.542;7.230;2022-11-18T00:35:53;12.00;99.90
11497;DHT22;5805;51.542;7.230;2022-11-18T00:38:18;12.10;99.90
11497;DHT22;5805;51.542;7.230;2022-11-18T00:40:44;12.10;99.90
11497;DHT22;5805;51.542;7.230;2022-11-18T00:43:10;12.10;99.90
11497;DHT22;5805;51.542;7.230;2022-11-18T00:45:35;12.10;99.90
11497;DHT22;5805;51.542;7.230;2022-11-18T00:48:01;12.10;99.90
11497;DHT22;5805;51.542;7.230;2022-11-18T00:50:28;12.30;99.90
11497;DHT22;5805;51.542;7.230;2022-11-18T00:52:53;12.10;99.90
11497;DHT22;5805;51.542;7.230;2022-11-18T00:55:19;12.70;99.90
11497;DHT22;5805;51.542;7.230;2022-11-18T00:57:45;12.20;99.90
11497;DHT22;5805;51.542;7.230;2022-11-18T01:00:11;12.40;99.90
11497;DHT22;5805;51.542;7.230;2022-11-18T01:02:37;12.20;99.90
11497;DHT22;5805;51.542;7.230;2022-11-18T01:05:03;12.20;99.90
11497;DHT22;5805;51.542;7.230;2022-11-18T01:07:30;12.20;99.90
11497;DHT22;5805;51.542;7.230;2022-11-18T01:09:56;12.20;99.90
11497;DHT22;5805;51.542;7.230;2022-11-18T01:12:21;12.70;99.90
11497;DHT22;5805;51.542;7.230;2022-11-18T01:14:47;12.10;99.90
11497;DHT22;5805;51.542;7.230;2022-11-18T01:17:13;12.10;99.90
11497;DHT22;5805;51.542;7.230;2022-11-18T01:19:38;12.00;99.90
11497;DHT22;5805;51.542;7.230;2022-11-18T01:22:04;12.00;99.90
11497;DHT22;5805;51.542;7.230;2022-11-18T01:24:32;12.00;99.90
11497;DHT22;5805;51.542;7.230;2022-11-18T01:26:58;12.00;99.90
11497;DHT22;5805;51.542;7.230;2022-11-18T01:29:24;12.00;99.90
11497;DHT22;5805;51.542;7.230;2022-11-18T01:31:50;12.10;99.90
11497;DHT22;5805;51.542;7.230;2022-11-18T01:34:16;12.10;99.90
11497;DHT22;5805;51.542;7.230;2022-11-18T01:36:42;12.10;99.90
11497;DHT22;5805;51.542;7.230;2022-11-18T01:39:07;12.20;99.90
11497;DHT22;5805;51.542;7.230;2022-11-18T01:41:34;12.20;99.90
11497;DHT22;5805;51.542;7.230;2022-11-18T01:44:02;12.20;99.90
11497;DHT22;5805;51.542;7.230;2022-11-18T01:46:29;12.60;99.90
11497;DHT22;5805;51.542;7.230;2022-11-18T01:48:58;12.10;99.90
11497;DHT22;5805;51.542;7.230;2022-11-18T01:51:28;12.10;99.90
11497;DHT22;5805;51.542;7.230;2022-11-18T01:53:58;12.10;99.90
11497;DHT22;5805;51.542;7.230;2022-11-18T01:56:27;12.10;99.90
11497;DHT22;5805;51.542;7.230;2022-11-18T01:59:02;12.10;99.90
11497;DHT22;5805;51.542;7.230;2022-11-18T02:01:28;12.10;99.90
11497;DHT22;5805;51.542;7.230;2022-11-18T02:03:54;12.10;99.90
11497;DHT22;5805;51.542;7.230;2022-11-18T02:06:20;12.10;99.90
11497;DHT22;5805;51.542;7.230;2022-11-18T02:08:47;12.10;99.90
11497;DHT22;5805;51.542;7.230;2022-11-18T02:11:14;12.00;99.90
11497;DHT22;5805;51.542;7.230;2022-11-18T02:13:40;12.10;99.90
11497;DHT22;5805;51.542;7.230;2022-11-18T02:16:13;12.10;99.90
11497;DHT22;5805;51.542;7.230;2022-11-18T02:18:45;12.10;99.90
11497;DHT22;5805;51.542;7.230;2022-11-18T02:21:23;12.10;99.90
11497;DHT22;5805;51.542;7.230;2022-11-18T02:29:55;12.00;99.90
11497;DHT22;5805;51.542;7.230;2022-11-18T02:32:25;11.90;99.90
11497;DHT22;5805;51.542;7.230;2022-11-18T02:34:57;12.00;99.90
11497;DHT22;5805;51.542;7.230;2022-11-18T02:37:30;11.90;99.90
11497;DHT22;5805;51.542;7.230;2022-11-18T02:40:11;11.90;99.90
11497;DHT22;5805;51.542;7.230;2022-11-18T02:42:39;11.90;99.90
11497;DHT22;5805;51.542;7.230;2022-11-18T02:45:12;11.90;99.90
11497;DHT22;5805;51.542;7.230;2022-11-18T02:47:41;11.90;99.90
11497;DHT22;5805;51.542;7.230;2022-11-18T02:50:12;11.90;99.90
11497;DHT22;5805;51.542;7.230;2022-11-18T02:52:40;11.90;99.90
11497;DHT22;5805;51.542;7.230;2022-11-18T02:55:09;11.80;99.90
11497;DHT22;5805;51.542;7.230;2022-11-18T02:57:36;11.70;99.90
11497;DHT22;5805;51.542;7.230;2022-11-18T03:00:07;11.70;99.90
11497;DHT22;5805;51.542;7.230;2022-11-18T03:02:39;11.60;99.90
11497;DHT22;5805;51.542;7.230;2022-11-18T03:05:08;11.90;99.90
11497;DHT22;5805;51.542;7.230;2022-11-18T03:07:39;11.40;99.90
11497;DHT22;5805;51.542;7.230;2022-11-18T03:10:06;11.30;99.90
11497;DHT22;5805;51.542;7.230;2022-11-18T03:12:41;11.40;99.90
11497;DHT22;5805;51.542;7.230;2022-11-18T03:15:17;11.30;99.90
11497;DHT22;5805;51.542;7.230;2022-11-18T03:17:47;11.40;99.90
11497;DHT22;5805;51.542;7.230;2022-11-18T03:20:20;11.40;99.90
11497;DHT22;5805;51.542;7.230;2022-11-18T03:22:51;11.40;99.90
11497;DHT22;5805;51.542;7.230;2022-11-18T03:25:20;12.00;99.90
11497;DHT22;5805;51.542;7.230;2022-11-18T03:27:51;11.60;99.90
11497;DHT22;5805;51.542;7.230;2022-11-18T03:30:21;11.60;99.90
11497;DHT22;5805;51.542;7.230;2022-11-18T03:32:51;11.70;99.90
11497;DHT22;5805;51.542;7.230;2022-11-18T03:35:21;11.70;99.90
11497;DHT22;5805;51.542;7.230;2022-11-18T03:37:49;11.80;99.90
11497;DHT22;5805;51.542;7.230;2022-11-18T03:40:21;11.70;99.90
11497;DHT22;5805;51.542;7.230;2022-11-18T03:42:49;11.70;99.90
11497;DHT22;5805;51.542;7.230;2022-11-18T03:45:24;11.70;99.90
11497;DHT22;5805;51.542;7.230;2022-11-18T03:47:54;11.80;99.90
11497;DHT22;5805;51.542;7.230;2022-11-18T03:50:26;12.60;99.90
11497;DHT22;5805;51.542;7.230;2022-11-18T03:52:54;11.80;99.90
11497;DHT22;5805;51.542;7.230;2022-11-18T03:55:23;11.90;99.90
11497;DHT22;5805;51.542;7.230;2022-11-18T03:57:55;11.90;99.90
11497;DHT22;5805;51.542;7.230;2022-11-18T04:00:25;11.90;99.90
11497;DHT22;5805;51.542;7.230;2022-11-18T04:02:54;11.90;99.90
11497;DHT22;5805;51.542;7.230;2022-11-18T04:05:20;12.00;99.90
11497;DHT22;5805;51.542;7.230;2022-11-18T04:07:53;11.90;99.90
11497;DHT22;5805;51.542;7.230;2022-11-18T04:10:21;12.00;99.90
11497;DHT22;5805;51.542;7.230;2022-11-18T04:12:51;12.00;99.90
11497;DHT22;5805;51.542;7.230;2022-11-18T04:15:18;12.00;99.90
11497;DHT22;5805;51.542;7.230;2022-11-18T04:17:45;12.00;99.90
11497;DHT22;5805;51.542;7.230;2022-11-18T04:20:13;11.90;99.90
11497;DHT22;5805;51.542;7.230;2022-11-18T04:22:42;11.90;99.90
11497;DHT22;5805;51.542;7.230;2022-11-18T04:25:08;11.90;99.90
11497;DHT22;5805;51.542;7.230;2022-11-18T04:27:33;11.90;99.90
11497;DHT22;5805;51.542;7.230;2022-11-18T04:29:59;12.00;99.90
11497;DHT22;5805;51.542;7.230;2022-11-18T04:32:25;11.70;99.90
11497;DHT22;5805;51.542;7.230;2022-11-18T04:34:51;12.00;99.90
11497;DHT22;5805;51.542;7.230;2022-11-18T04:37:17;11.80;99.90
11497;DHT22;5805;51.542;7.230;2022-11-18T04:39:43;11.70;99.90
11497;DHT22;5805;51.542;7.230;2022-11-18T04:42:08;11.70;99.90
11497;DHT22;5805;51.542;7.230;2022-11-18T04:44:34;11.70;99.90
11497;DHT22;5805;51.542;7.230;2022-11-18T04:47:01;11.70;99.90
11497;DHT22;5805;51.542;7.230;2022-11-18T04:49:27;11.80;99.90
11497;DHT22;5805;51.542;7.230;2022-11-18T04:51:55;11.90;99.90
11497;DHT22;5805;51.542;7.230;2022-11-18T04:54:21;11.90;99.90
11497;DHT22;5805;51.542;7.230;2022-11-18T04:56:47;12.00;99.90
11497;DHT22;5805;51.542;7.230;2022-11-18T04:59:15;12.00;99.90
11497;DHT22;5805;51.542;7.230;2022-11-18T05:01:40;11.90;99.90
11497;DHT22;5805;51.542;7.230;2022-11-18T05:04:06;11.90;99.90
11497;DHT22;5805;51.542;7.230;2022-11-18T05:06:33;11.80;99.90
11497;DHT22;5805;51.542;7.230;2022-11-18T05:09:00;11.80;99.90
11497;DHT22;5805;51.542;7.230;2022-11-18T05:11:26;11.70;99.90
11497;DHT22;5805;51.542;7.230;2022-11-18T05:13:52;12.00;99.90
11497;DHT22;5805;51.542;7.230;2022-11-18T05:16:18;11.70;99.90
11497;DHT22;5805;51.542;7.230;2022-11-18T05:18:44;11.60;99.90
11497;DHT22;5805;51.542;7.230;2022-11-18T05:21:09;11.50;99.90
11497;DHT22;5805;51.542;7.230;2022-11-18T05:23:35;11.50;99.90
11497;DHT22;5805;51.542;7.230;2022-11-18T05:26:03;11.50;99.90
11497;DHT22;5805;51.542;7.230;2022-11-18T05:28:29;11.50;99.90
11497;DHT22;5805;51.542;7.230;2022-11-18T05:30:55;11.50;99.90
11497;DHT22;5805;51.542;7.230;2022-11-18T05:33:20;11.50;99.90
11497;DHT22;5805;51.542;7.230;2022-11-18T05:35:46;11.60;99.90
11497;DHT22;5805;51.542;7.230;2022-11-18T05:38:11;11.60;99.90
11497;DHT22;5805;51.542;7.230;2022-11-18T05:40:37;11.70;99.90
11497;DHT22;5805;51.542;7.230;2022-11-18T05:43:04;11.70;99.90
11497;DHT22;5805;51.542;7.230;2022-11-18T05:45:30;11.70;99.90
11497;DHT22;5805;51.542;7.230;2022-11-18T05:47:56;11.70;99.90
11497;DHT22;5805;51.542;7.230;2022-11-18T05:50:21;11.80;99.90
11497;DHT22;5805;51.542;7.230;2022-11-18T05:52:47;11.70;99.90
11497;DHT22;5805;51.542;7.230;2022-11-18T05:55:13;11.70;99.90
11497;DHT22;5805;51.542;7.230;2022-11-18T05:57:40;11.80;99.90
11497;DHT22;5805;51.542;7.230;2022-11-18T06:00:08;11.90;99.90
11497;DHT22;5805;51.542;7.230;2022-11-18T06:02:34;11.90;99.90
11497;DHT22;5805;51.542;7.230;2022-11-18T06:05:02;12.60;99.90
11497;DHT22;5805;51.542;7.230;2022-11-18T06:07:30;11.90;99.90
11497;DHT22;5805;51.542;7.230;2022-11-18T06:09:58;11.90;99.90
11497;DHT22;5805;51.542;7.230;2022-11-18T06:12:27;12.20;99.90
11497;DHT22;5805;51.542;7.230;2022-11-18T06:14:58;12.00;99.90
11497;DHT22;5805;51.542;7.230;2022-11-18T06:17:30;12.00;99.90
11497;DHT22;5805;51.542;7.230;2022-11-18T06:19:57;12.00;99.90
11497;DHT22;5805;51.542;7.230;2022-11-18T06:22:23;12.00;99.90
11497;DHT22;5805;51.542;7.230;2022-11-18T06:24:50;12.00;99.90
11497;DHT22;5805;51.542;7.230;2022-11-18T06:27:15;12.00;99.90
11497;DHT22;5805;51.542;7.230;2022-11-18T06:29:42;12.10;99.90
11497;DHT22;5805;51.542;7.230;2022-11-18T06:32:08;12.30;99.90
11497;DHT22;5805;51.542;7.230;2022-11-18T06:34:35;12.10;99.90
11497;DHT22;5805;51.542;7.230;2022-11-18T06:37:11;12.10;99.90
11497;DHT22;5805;51.542;7.230;2022-11-18T06:39:37;12.10;99.90
11497;DHT22;5805;51.542;7.230;2022-11-18T06:42:02;12.10;99.90
11497;DHT22;5805;51.542;7.230;2022-11-18T06:44:28;12.10;99.90
11497;DHT22;5805;51.542;7.230;2022-11-18T06:46:54;12.10;99.90
11497;DHT22;5805;51.542;7.230;2022-11-18T06:49:20;12.50;99.90
11497;DHT22;5805;51.542;7.230;2022-11-18T06:51:47;12.20;99.90
11497;DHT22;5805;51.542;7.230;2022-11-18T06:54:13;12.10;99.90
11497;DHT22;5805;51.542;7.230;2022-11-18T06:56:38;12.10;99.90
11497;DHT22;5805;51.542;7.230;2022-11-18T06:59:04;12.10;99.90
11497;DHT22;5805;51.542;7.230;2022-11-18T07:01:33;12.10;99.90
11497;DHT22;5805;51.542;7.230;2022-11-18T07:03:59;12.20;99.90
11497;DHT22;5805;51.542;7.230;2022-11-18T07:06:27;12.20;99.90
11497;DHT22;5805;51.542;7.230;2022-11-18T07:08:55;12.20;99.90
11497;DHT22;5805;51.542;7.230;2022-11-18T07:11:22;12.40;99.90
11497;DHT22;5805;51.542;7.230;2022-11-18T07:13:48;12.40;99.90
11497;DHT22;5805;51.542;7.230;2022-11-18T07:16:16;12.20;99.90
11497;DHT22;5805;51.542;7.230;2022-11-18T07:18:43;12.20;99.90
11497;DHT22;5805;51.542;7.230;2022-11-18T07:21:10;12.30;99.90
11497;DHT22;5805;51.542;7.230;2022-11-18T07:23:37;12.20;99.90
11497;DHT22;5805;51.542;7.230;2022-11-18T07:26:04;12.30;99.90
11497;DHT22;5805;51.542;7.230;2022-11-18T07:28:30;12.30;99.90
11497;DHT22;5805;51.542;7.230;2022-11-18T07:31:00;12.30;99.90
11497;DHT22;5805;51.542;7.230;2022-11-18T07:33:26;12.40;99.90
11497;DHT22;5805;51.542;7.230;2022-11-18T07:35:52;12.40;99.90
11497;DHT22;5805;51.542;7.230;2022-11-18T07:38:17;12.50;99.90
11497;DHT22;5805;51.542;7.230;2022-11-18T07:40:43;12.50;99.90
11497;DHT22;5805;51.542;7.230;2022-11-18T07:43:10;12.50;99.90
11497;DHT22;5805;51.542;7.230;2022-11-18T07:45:36;12.60;99.90
11497;DHT22;5805;51.542;7.230;2022-11-18T07:48:01;12.60;99.90
11497;DHT22;5805;51.542;7.230;2022-11-18T07:50:27;12.60;99.90
11497;DHT22;5805;51.542;7.230;2022-11-18T07:52:54;12.60;99.90
11497;DHT22;5805;51.542;7.230;2022-11-18T07:55:20;12.60;99.90
11497;DHT22;5805;51.542;7.230;2022-11-18T07:57:45;12.60;99.90
11497;DHT22;5805;51.542;7.230;2022-11-18T08:00:13;12.60;99.90
11497;DHT22;5805;51.542;7.230;2022-11-18T08:02:39;12.70;99.90
11497;DHT22;5805;51.542;7.230;2022-11-18T08:05:05;12.60;99.90
11497;DHT22;5805;51.542;7.230;2022-11-18T08:07:31;12.60;99.90
11497;DHT22;5805;51.542;7.230;2022-11-18T08:09:57;12.60;99.90
11497;DHT22;5805;51.542;7.230;2022-11-18T08:12:22;12.70;99.90
11497;DHT22;5805;51.542;7.230;2022-11-18T08:14:48;12.70;99.90
11497;DHT22;5805;51.542;7.230;2022-11-18T08:17:15;12.80;99.90
11497;DHT22;5805;51.542;7.230;2022-11-18T08:19:41;12.80;99.90
11497;DHT22;5805;51.542;7.230;2022-11-18T08:22:06;12.80;99.90
11497;DHT22;5805;51.542;7.230;2022-11-18T08:24:32;12.90;99.90
11497;DHT22;5805;51.542;7.230;2022-11-18T08:26:58;12.90;99.90
11497;DHT22;5805;51.542;7.230;2022-11-18T08:29:23;12.90;99.90
11497;DHT22;5805;51.542;7.230;2022-11-18T08:31:49;12.90;99.90
11497;DHT22;5805;51.542;7.230;2022-11-18T08:34:16;12.90;99.90
11497;DHT22;5805;51.542;7.230;2022-11-18T08:36:42;12.90;99.90
11497;DHT22;5805;51.542;7.230;2022-11-18T08:39:09;12.90;99.90
11497;DHT22;5805;51.542;7.230;2022-11-18T08:41:37;13.10;99.90
11497;DHT22;5805;51.542;7.230;2022-11-18T08:44:03;13.10;99.90
11497;DHT22;5805;51.542;7.230;2022-11-18T08:46:30;13.20;99.90
11497;DHT22;5805;51.542;7.230;2022-11-18T08:48:55;13.30;99.90
11497;DHT22;5805;51.542;7.230;2022-11-18T08:51:23;13.40;99.90
11497;DHT22;5805;51.542;7.230;2022-11-18T08:53:49;13.40;99.90
11497;DHT22;5805;51.542;7.230;2022-11-18T08:56:17;13.50;99.90
11497;DHT22;5805;51.542;7.230;2022-11-18T08:58:43;13.50;99.90
11497;DHT22;5805;51.542;7.230;2022-11-18T09:01:09;13.60;99.90
11497;DHT22;5805;51.542;7.230;2022-11-18T09:03:35;13.60;99.90
11497;DHT22;5805;51.542;7.230;2022-11-18T09:06:05;13.60;99.90
11497;DHT22;5805;51.542;7.230;2022-11-18T09:08:32;13.70;99.90
11497;DHT22;5805;51.542;7.230;2022-11-18T09:10:58;13.70;99.90
11497;DHT22;5805;51.542;7.230;2022-11-18T09:13:23;13.70;99.90
11497;DHT22;5805;51.542;7.230;2022-11-18T09:15:49;13.70;99.90
11497;DHT22;5805;51.542;7.230;2022-11-18T09:18:14;13.70;99.90
11497;DHT22;5805;51.542;7.230;2022-11-18T09:20:40;13.70;99.90
11497;DHT22;5805;51.542;7.230;2022-11-18T09:23:06;13.80;99.90
11497;DHT22;5805;51.542;7.230;2022-11-18T09:25:33;14.00;99.90
11497;DHT22;5805;51.542;7.230;2022-11-18T09:27:58;13.70;99.90
11497;DHT22;5805;51.542;7.230;2022-11-18T09:30:24;13.70;99.90
11497;DHT22;5805;51.542;7.230;2022-11-18T09:32:50;13.60;99.90
11497;DHT22;5805;51.542;7.230;2022-11-18T09:35:15;13.60;99.90
11497;DHT22;5805;51.542;7.230;2022-11-18T09:37:41;13.50;99.90
11497;DHT22;5805;51.542;7.230;2022-11-18T09:40:12;13.50;99.90
11497;DHT22;5805;51.542;7.230;2022-11-18T09:42:52;13.50;99.90
11497;DHT22;5805;51.542;7.230;2022-11-18T09:45:22;13.70;99.90
11497;DHT22;5805;51.542;7.230;2022-11-18T09:47:49;13.70;99.90
11497;DHT22;5805;51.542;7.230;2022-11-18T09:50:16;13.70;99.90
11497;DHT22;5805;51.542;7.230;2022-11-18T09:52:48;13.70;99.90
11497;DHT22;5805;51.542;7.230;2022-11-18T09:55:18;13.60;99.90
11497;DHT22;5805;51.542;7.230;2022-11-18T09:57:48;13.60;99.90
11497;DHT22;5805;51.542;7.230;2022-11-18T10:00:16;13.60;99.90
11497;DHT22;5805;51.542;7.230;2022-11-18T10:02:50;13.70;99.90
11497;DHT22;5805;51.542;7.230;2022-11-18T10:05:19;13.70;99.90
11497;DHT22;5805;51.542;7.230;2022-11-18T10:08:02;13.70;99.90
11497;DHT22;5805;51.542;7.230;2022-11-18T10:10:34;13.70;99.90
11497;DHT22;5805;51.542;7.230;2022-11-18T10:13:11;13.80;99.90
11497;DHT22;5805;51.542;7.230;2022-11-18T10:15:45;13.90;99.90
11497;DHT22;5805;51.542;7.230;2022-11-18T10:18:21;13.90;99.90
11497;DHT22;5805;51.542;7.230;2022-11-18T10:20:55;14.00;99.90
11497;DHT22;5805;51.542;7.230;2022-11-18T10:23:24;14.10;99.90
11497;DHT22;5805;51.542;7.230;2022-11-18T10:25:51;14.70;99.90
11497;DHT22;5805;51.542;7.230;2022-11-18T10:28:21;14.20;99.90
11497;DHT22;5805;51.542;7.230;2022-11-18T10:30:48;14.20;99.90
11497;DHT22;5805;51.542;7.230;2022-11-18T10:33:22;14.20;99.90
11497;DHT22;5805;51.542;7.230;2022-11-18T10:35:49;14.40;99.90
11497;DHT22;5805;51.542;7.230;2022-11-18T10:38:16;14.30;99.90
11497;DHT22;5805;51.542;7.230;2022-11-18T10:40:45;14.40;99.90
11497;DHT22;5805;51.542;7.230;2022-11-18T10:43:44;14.40;99.90
11497;DHT22;5805;51.542;7.230;2022-11-18T10:46:22;14.40;99.90
11497;DHT22;5805;51.542;7.230;2022-11-18T10:49:11;14.40;99.90
11497;DHT22;5805;51.542;7.230;2022-11-18T10:51:38;14.40;99.90
11497;DHT22;5805;51.542;7.230;2022-11-18T10:54:07;14.50;99.90
11497;DHT22;5805;51.542;7.230;2022-11-18T10:56:43;14.50;99.90
11497;DHT22;5805;51.542;7.230;2022-11-18T10:59:18;14.60;99.90
11497;DHT22;5805;51.542;7.230;2022-11-18T11:01:56;14.60;99.90
11497;DHT22;5805;51.542;7.230;2022-11-18T11:04:24;14.70;99.90
11497;DHT22;5805;51.542;7.230;2022-11-18T11:06:49;14.70;99.90
11497;DHT22;5805;51.542;7.230;2022-11-18T11:09:24;14.80;99.90
11497;DHT22;5805;51.542;7.230;2022-11-18T11:11:56;14.80;99.90
11497;DHT22;5805;51.542;7.230;2022-11-18T11:14:27;14.70;99.90
11497;DHT22;5805;51.542;7.230;2022-11-18T11:17:03;14.80;99.90
11497;DHT22;5805;51.542;7.230;2022-11-18T11:19:37;14.70;99.90
11497;DHT22;5805;51.542;7.230;2022-11-18T11:22:08;14.60;99.90
11497;DHT22;5805;51.542;7.230;2022-11-18T11:24:34;14.50;99.90
11497;DHT22;5805;51.542;7.230;2022-11-18T11:27:09;14.40;99.90
11497;DHT22;5805;51.542;7.230;2022-11-18T11:30:04;14.40;99.90
11497;DHT22;5805;51.542;7.230;2022-11-18T11:32:38;14.30;99.90
11497;DHT22;5805;51.542;7.230;2022-11-18T11:35:11;14.40;99.90
11497;DHT22;5805;51.542;7.230;2022-11-18T11:37:49;14.40;99.90
11497;DHT22;5805;51.542;7.230;2022-11-18T11:40:22;14.50;99.90
11497;DHT22;5805;51.542;7.230;2022-11-18T11:42:59;14.50;99.90
11497;DHT22;5805;51.542;7.230;2022-11-18T11:45:34;14.70;99.90
11497;DHT22;5805;51.542;7.230;2022-11-18T11:48:17;15.00;99.90
11497;DHT22;5805;51.542;7.230;2022-11-18T11:50:49;15.10;99.90
11497;DHT22;5805;51.542;7.230;2022-11-18T11:53:23;15.30;99.90
11497;DHT22;5805;51.542;7.230;2022-11-18T11:55:58;15.30;99.90
11497;DHT22;5805;51.542;7.230;2022-11-18T11:58:39;15.30;99.90
11497;DHT22;5805;51.542;7.230;2022-11-18T12:01:17;15.20;99.90
11497;DHT22;5805;51.542;7.230;2022-11-18T12:03:45;15.20;99.90
11497;DHT22;5805;51.542;7.230;2022-11-18T12:06:12;15.30;99.90
11497;DHT22;5805;51.542;7.230;2022-11-18T12:08:46;15.40;99.90
11497;DHT22;5805;51.542;7.230;2022-11-18T12:11:16;15.30;99.90
11497;DHT22;5805;51.542;7.230;2022-11-18T12:13:49;15.70;99.90
11497;DHT22;5805;51.542;7.230;2022-11-18T12:16:24;15.70;99.90
11497;DHT22;5805;51.542;7.230;2022-11-18T12:18:56;15.40;99.90
11497;DHT22;5805;51.542;7.230;2022-11-18T12:21:51;15.40;99.90
11497;DHT22;5805;51.542;7.230;2022-11-18T12:24:25;15.40;99.90
11497;DHT22;5805;51.542;7.230;2022-11-18T12:26:52;15.30;99.90
11497;DHT22;5805;51.542;7.230;2022-11-18T12:29:21;15.30;99.90
11497;DHT22;5805;51.542;7.230;2022-11-18T12:31:49;15.30;99.90
11497;DHT22;5805;51.542;7.230;2022-11-18T12:34:26;15.40;99.90
11497;DHT22;5805;51.542;7.230;2022-11-18T12:36:54;15.50;99.90
11497;DHT22;5805;51.542;7.230;2022-11-18T12:39:45;15.60;99.90
11497;DHT22;5805;51.542;7.230;2022-11-18T12:42:38;15.70;99.90
11497;DHT22;5805;51.542;7.230;2022-11-18T12:48:46;15.60;99.90
11497;DHT22;5805;51.542;7.230;2022-11-18T12:51:39;15.60;99.90
11497;DHT22;5805;51.542;7.230;2022-11-18T12:54:21;15.50;99.90
11497;DHT22;5805;51.542;7.230;2022-11-18T12:56:49;15.60;99.90
11497;DHT22;5805;51.542;7.230;2022-11-18T12:59:15;15.70;99.90
11497;DHT22;5805;51.542;7.230;2022-11-18T13:01:40;15.60;99.90
11497;DHT22;5805;51.542;7.230;2022-11-18T13:04:11;15.50;99.90
11497;DHT22;5805;51.542;7.230;2022-11-18T13:06:38;15.20;99.90
11497;DHT22;5805;51.542;7.230;2022-11-18T13:09:11;15.10;99.90
11497;DHT22;5805;51.542;7.230;2022-11-18T13:11:44;15.00;99.90
11497;DHT22;5805;51.542;7.230;2022-11-18T13:14:15;14.90;99.90
11497;DHT22;5805;51.542;7.230;2022-11-18T13:16:42;14.80;99.90
11497;DHT22;5805;51.542;7.230;2022-11-18T13:19:20;14.80;99.90
11497;DHT22;5805;51.542;7.230;2022-11-18T13:21:52;14.80;99.90
11497;DHT22;5805;51.542;7.230;2022-11-18T13:24:20;14.90;99.90
11497;DHT22;5805;51.542;7.230;2022-11-18T13:26:47;14.90;99.90
11497;DHT22;5805;51.542;7.230;2022-11-18T13:29:27;15.00;99.90
11497;DHT22;5805;51.542;7.230;2022-11-18T13:32:11;15.00;99.90
11497;DHT22;5805;51.542;7.230;2022-11-18T13:34:45;15.10;99.90
11497;DHT22;5805;51.542;7.230;2022-11-18T13:37:16;15.10;99.90
11497;DHT22;5805;51.542;7.230;2022-11-18T13:39:44;15.10;99.90
11497;DHT22;5805;51.542;7.230;2022-11-18T13:42:15;15.10;99.90
11497;DHT22;5805;51.542;7.230;2022-11-18T13:44:44;15.10;99.90
11497;DHT22;5805;51.542;7.230;2022-11-18T13:47:18;15.10;99.90
11497;DHT22;5805;51.542;7.230;2022-11-18T13:49:51;15.50;99.90
11497;DHT22;5805;51.542;7.230;2022-11-18T13:52:21;15.10;99.90
11497;DHT22;5805;51.542;7.230;2022-11-18T13:54:49;15.10;99.90
11497;DHT22;5805;51.542;7.230;2022-11-18T13:57:17;15.10;99.90
11497;DHT22;5805;51.542;7.230;2022-11-18T13:59:45;15.00;99.90
11497;DHT22;5805;51.542;7.230;2022-11-18T14:02:12;14.90;99.90
11497;DHT22;5805;51.542;7.230;2022-11-18T14:04:48;14.90;99.90
11497;DHT22;5805;51.542;7.230;2022-11-18T14:07:23;14.90;99.90
11497;DHT22;5805;51.542;7.230;2022-11-18T14:09:53;14.90;99.90
11497;DHT22;5805;51.542;7.230;2022-11-18T14:12:22;14.90;99.90
11497;DHT22;5805;51.542;7.230;2022-11-18T14:14:48;14.90;99.90
11497;DHT22;5805;51.542;7.230;2022-11-18T14:17:16;14.90;99.90
11497;DHT22;5805;51.542;7.230;2022-11-18T14:19:42;14.80;99.90
11497;DHT22;5805;51.542;7.230;2022-11-18T14:22:13;14.80;99.90
11497;DHT22;5805;51.542;7.230;2022-11-18T14:24:40;14.70;99.90
11497;DHT22;5805;51.542;7.230;2022-11-18T14:27:32;14.60;99.90
11497;DHT22;5805;51.542;7.230;2022-11-18T14:29:59;14.60;99.90
11497;DHT22;5805;51.542;7.230;2022-11-18T14:32:25;14.50;99.90
11497;DHT22;5805;51.542;7.230;2022-11-18T14:34:57;14.50;99.90
11497;DHT22;5805;51.542;7.230;2022-11-18T14:37:24;14.50;99.90
11497;DHT22;5805;51.542;7.230;2022-11-18T14:39:54;14.50;99.90
11497;DHT22;5805;51.542;7.230;2022-11-18T14:42:19;14.50;99.90
11497;DHT22;5805;51.542;7.230;2022-11-18T14:44:45;14.50;99.90
11497;DHT22;5805;51.542;7.230;2022-11-18T14:47:17;14.40;99.90
11497;DHT22;5805;51.542;7.230;2022-11-18T14:49:44;14.30;99.90
11497;DHT22;5805;51.542;7.230;2022-11-18T14:52:10;14.20;99.90
11497;DHT22;5805;51.542;7.230;2022-11-18T14:54:37;14.50;99.90
11497;DHT22;5805;51.542;7.230;2022-11-18T14:57:03;14.20;99.90
11497;DHT22;5805;51.542;7.230;2022-11-18T14:59:30;14.30;99.90
11497;DHT22;5805;51.542;7.230;2022-11-18T15:01:56;14.20;99.90
11497;DHT22;5805;51.542;7.230;2022-11-18T15:04:22;14.10;99.90
11497;DHT22;5805;51.542;7.230;2022-11-18T15:06:47;14.10;99.90
11497;DHT22;5805;51.542;7.230;2022-11-18T15:09:13;14.10;99.90
11497;DHT22;5805;51.542;7.230;2022-11-18T15:11:40;14.20;99.90
11497;DHT22;5805;51.542;7.230;2022-11-18T15:14:06;14.00;99.90
11497;DHT22;5805;51.542;7.230;2022-11-18T15:16:32;14.00;99.90
11497;DHT22;5805;51.542;7.230;2022-11-18T15:19:01;14.10;99.90
11497;DHT22;5805;51.542;7.230;2022-11-18T15:21:27;14.00;99.90
11497;DHT22;5805;51.542;7.230;2022-11-18T15:23:53;14.10;99.90
11497;DHT22;5805;51.542;7.230;2022-11-18T15:26:20;14.00;99.90
11497;DHT22;5805;51.542;7.230;2022-11-18T15:28:48;14.10;99.90
11497;DHT22;5805;51.542;7.230;2022-11-18T15:31:14;14.10;99.90
11497;DHT22;5805;51.542;7.230;2022-11-18T15:33:42;14.10;99.90
11497;DHT22;5805;51.542;7.230;2022-11-18T15:36:11;14.00;99.90
11497;DHT22;5805;51.542;7.230;2022-11-18T15:38:37;13.90;99.90
11497;DHT22;5805;51.542;7.230;2022-11-18T15:41:02;14.00;99.90
11497;DHT22;5805;51.542;7.230;2022-11-18T15:43:28;13.80;99.90
11497;DHT22;5805;51.542;7.230;2022-11-18T15:45:57;13.70;99.90
11497;DHT22;5805;51.542;7.230;2022-11-18T15:48:23;13.60;99.90
11497;DHT22;5805;51.542;7.230;2022-11-18T15:50:49;13.50;99.90
11497;DHT22;5805;51.542;7.230;2022-11-18T15:53:14;13.50;99.90
11497;DHT22;5805;51.542;7.230;2022-11-18T15:55:40;13.40;99.90
11497;DHT22;5805;51.542;7.230;2022-11-18T15:58:06;13.40;99.90
11497;DHT22;5805;51.542;7.230;2022-11-18T16:00:31;13.50;99.90
11497;DHT22;5805;51.542;7.230;2022-11-18T16:02:58;13.50;99.90
11497;DHT22;5805;51.542;7.230;2022-11-18T16:05:24;13.50;99.90